Bryce Canyon, UT

12:13 AM MST on February 20, 2017 (GMT -0700)
Bryce Canyon | | Change Station

Elev 7585 ft 37.71 °N, 112.15 °W | Updated 20 minutes ago

Clear
Clear
25 °F
Feels Like 25 °F
N
0
Wind Variable Wind from North

Today
High -- | Low -- °F
--% Chance of Precip.
Yesterday
High -- | Low -- °F
Precip. -- in
Pressure 29.99 in
Visibility 10.0 miles
Clouds Clear
Dew Point 21 °F
Humidity 85%
Rainfall 0.17 in
Snow Depth Not available.
7:11 AM 6:13 PM
Last Quarter, 36% visible
METAR KBCE 200653Z AUTO 00000KT 10SM CLR M04/M06 A3005 RMK AO2 SLP155 T10391061 400391044 TSNO
Pressure 29.99 in
Visibility 10.0 miles
Clouds Clear
Dew Point 21 °F
Humidity 85%
Rainfall 0.17 in
Snow Depth Not available.
7:11 AM 6:13 PM
Last Quarter, 36% visible
METAR KBCE 200653Z AUTO 00000KT 10SM CLR M04/M06 A3005 RMK AO2 SLP155 T10391061 400391044 TSNO

Get Your Daily Forecast Email!

Thanks for signing up!

Be on the lookout for a verification email in your inbox.

You'll start receiving the daily forecast at 8 AM.

×

10-Day Weather Forecast

Almanac

Astronomy

Feb. 20, 2017 Rise Set
Actual Time
Civil Twilight
Nautical Twilight
Astronomical Twilight
Moon
Length of Visible Light
Length of Day
Tomorrow will be .
, % of the Moon is Illuminated

Today's Extremes

State Highs State Lows

Community

WunderPhotos

Upload Photos

1,962,540 photos uploaded!

WunderBlog® & News

Nearby

Air Quality

  Air Quality AQ Index Pollutant
Not available.

Snow Depth

Station Depth Elevation

Earthquake Activity

City Distance Mag. Time & Date
Minimum magnitude displayed is 2.5.

Coastal Water Temperatures

Place Temperature

Stations

Nearby Weather Stations

Station Location Temp. Windchill Dew Point Humidity Wind Precip. Elev Updated Type
                   

Watches & Warnings

There are currently no watches in effect.